createdAt,value
2018-01-15T00:08:01.440Z,38.90
2018-01-15T00:18:02.973Z,34.67
2018-01-15T00:28:04.537Z,40.07
2018-01-15T00:38:06.104Z,36.10
2018-01-15T00:48:07.688Z,38.80
2018-01-15T00:58:09.271Z,40.40
2018-01-15T01:08:11.543Z,36.20
2018-01-15T01:18:13.064Z,41.40
2018-01-15T01:28:14.649Z,36.97
2018-01-15T01:38:16.194Z,44.03
2018-01-15T01:48:17.884Z,36.43
2018-01-15T01:58:20.177Z,43.33
2018-01-15T02:08:21.736Z,42.30
2018-01-15T02:18:23.317Z,30.97
2018-01-15T02:28:24.760Z,36.20
2018-01-15T02:38:26.268Z,36.10
2018-01-15T02:48:27.800Z,34.37
2018-01-15T02:58:29.329Z,45.93
2018-01-15T03:08:30.832Z,43.83
2018-01-15T03:18:32.452Z,38.57
2018-01-15T03:28:33.940Z,44.83
2018-01-15T03:38:35.498Z,35.50
2018-01-15T03:48:37.196Z,36.47
2018-01-15T03:58:38.759Z,44.47
2018-01-15T04:08:40.308Z,33.73
2018-01-15T04:18:41.852Z,37.37
2018-01-15T04:28:43.368Z,45.67
2018-01-15T04:38:44.873Z,42.33
2018-01-15T04:48:47.140Z,36.93
2018-01-15T04:58:48.769Z,42.33
2018-01-15T05:08:50.315Z,38.10
2018-01-15T05:18:54.756Z,33.10
2018-01-15T05:28:57.595Z,41.27
2018-01-15T05:38:59.852Z,38.43
2018-01-15T05:49:01.418Z,37.23
2018-01-15T05:59:04.410Z,38.93
2018-01-15T06:09:06.075Z,40.23
2018-01-15T06:19:07.895Z,39.70
2018-01-15T06:29:09.460Z,40.87
2018-01-15T06:39:11.751Z,41.70
2018-01-15T06:49:13.970Z,47.23
2018-01-15T06:59:16.264Z,42.40
2018-01-15T07:09:18.523Z,43.40
2018-01-15T07:19:20.799Z,47.90
2018-01-15T07:29:22.318Z,39.77
2018-01-15T07:39:23.937Z,44.20
2018-01-15T07:49:26.205Z,44.37
2018-01-15T07:59:27.739Z,37.57
2018-01-15T08:09:29.228Z,42.80
2018-01-15T08:19:30.798Z,41.03
2018-01-15T08:29:32.311Z,50.33
2018-01-15T08:39:33.848Z,47.87
2018-01-15T08:49:35.381Z,57.97
2018-01-15T08:59:36.973Z,63.77
2018-01-15T09:09:38.492Z,64.73
2018-01-15T09:19:40.048Z,55.40
2018-01-15T09:29:42.348Z,64.93
2018-01-15T09:39:43.876Z,59.37
2018-01-15T09:49:45.430Z,55.60
2018-01-15T09:59:47.006Z,67.00
2018-01-15T10:09:48.522Z,62.20
2018-01-15T10:19:50.137Z,67.80
2018-01-15T10:29:51.707Z,70.50
2018-01-15T10:39:53.467Z,56.97
2018-01-15T10:49:55.751Z,69.40
2018-01-15T10:59:57.308Z,63.53
2018-01-15T11:09:58.845Z,76.80
2018-01-15T11:20:00.467Z,58.03
2018-01-15T11:30:02.033Z,64.40
2018-01-15T11:40:03.585Z,68.63
2018-01-15T11:50:05.867Z,63.43
2018-01-15T12:00:07.453Z,60.73
2018-01-15T12:10:09.006Z,51.87
2018-01-15T12:20:11.308Z,53.93
2018-01-15T12:30:13.561Z,60.67
2018-01-15T12:40:15.244Z,55.80
2018-01-15T12:50:16.962Z,57.27
2018-01-15T13:00:18.641Z,46.73
2018-01-15T13:10:20.963Z,53.03
2018-01-15T13:20:23.252Z,55.20
2018-01-15T13:30:24.849Z,52.07
2018-01-15T13:40:26.546Z,49.00
2018-01-15T13:50:28.083Z,49.97
2018-01-15T14:00:29.637Z,50.47
2018-01-15T14:10:31.121Z,48.83
2018-01-15T14:20:32.678Z,44.93
2018-01-15T14:30:34.944Z,42.40
2018-01-15T14:40:36.513Z,50.03
2018-01-15T14:50:38.077Z,31.53
2018-01-15T15:00:39.949Z,41.27
2018-01-15T15:10:41.508Z,32.27
2018-01-15T15:20:43.067Z,40.77
2018-01-15T15:30:44.597Z,31.43
2018-01-15T15:40:46.853Z,38.57
2018-01-15T15:50:48.509Z,38.93
2018-01-15T16:00:50.193Z,41.07
2018-01-15T16:10:51.744Z,51.97
2018-01-15T16:20:53.588Z,51.00
2018-01-15T16:30:55.193Z,46.47
2018-01-15T16:40:56.849Z,39.97
2018-01-15T16:50:58.436Z,42.77
2018-01-15T17:01:00.091Z,34.73
2018-01-15T17:11:03.270Z,39.57
2018-01-15T17:21:05.733Z,38.30
2018-01-15T17:31:07.434Z,37.63
2018-01-15T17:41:08.929Z,45.20
2018-01-15T17:51:10.485Z,29.60
2018-01-15T18:01:12.789Z,90.23
2018-01-15T18:11:14.327Z,46.43
2018-01-15T18:21:16.034Z,49.10
2018-01-15T18:31:17.681Z,54.53
2018-01-15T18:41:19.292Z,45.20
2018-01-15T18:51:20.815Z,30.60
2018-01-15T19:01:22.327Z,45.40
2018-01-15T19:11:23.879Z,31.27
2018-01-15T19:21:25.610Z,31.97
2018-01-15T19:31:28.054Z,30.73
2018-01-15T19:41:34.391Z,37.13
2018-01-15T19:51:42.107Z,18.77
2018-01-15T20:01:49.812Z,17.97
2018-01-15T20:11:51.752Z,19.63
2018-01-15T20:21:54.114Z,16.77
2018-01-15T20:31:55.886Z,10.90
2018-01-15T20:41:57.625Z,16.20
2018-01-15T20:51:59.270Z,11.90
2018-01-15T21:02:00.893Z,16.70
2018-01-15T21:12:02.545Z,11.07
2018-01-15T21:22:04.178Z,18.00
2018-01-15T21:32:06.524Z,9.37
2018-01-15T21:42:08.115Z,9.70
2018-01-15T21:52:10.562Z,11.17
2018-01-15T22:02:12.054Z,8.40
2018-01-15T22:12:13.630Z,4.20
2018-01-15T22:22:15.880Z,4.10
2018-01-15T22:32:17.483Z,4.00
2018-01-15T22:42:19.112Z,3.50
2018-01-15T22:52:20.655Z,1.87
2018-01-15T23:02:22.302Z,1.33
2018-01-15T23:12:23.820Z,0.80
2018-01-15T23:22:25.424Z,0.80
2018-01-15T23:32:26.967Z,0.97
2018-01-15T23:42:28.556Z,0.77
2018-01-15T23:52:30.087Z,2.10
